Austin, Nevada
Current Conditions -  °F | °C
As of 12:56 AM on Saturday 29 Nov 2014 (Local Time) from KNFL Reporting Station
Clear Clear  
Wind Chill: 56°   Ceiling: Unl
Heat Index: 56°   Visibility: 10mi
Dew Point:   Wind: 15mph
Humidity: 15%   Direction: 270°W
Pressure: 29.78"   Gusts: NA
Location:  39.49°N, 117.07°W
Report Text: KNFL 290856Z AUTO 27013KT 10SM CLR 13/M13 A2978 RMK AO2 SLP063 T01331128 58003
Loading
Personal Weather Stations






























Interactive Weather Map New forecast layout! Learn more

10-Day Weather Forecast

Advertisements
Track Severe Weather on mobile